Roundup, MT (59073)

11:36 PM MDT on October 31, 2014 (GMT -0600)
RAWS HORSE THIEF MT US | Change Station
CLOSE
Current Station
Personal Weather Station
Location: Roundup, MT
Elevation: 3479 ft
Nearby Weather Stations

Elev 3479 ft 46.43 °N, 108.67 °W | Updated 57 minutes ago

Overcast
Overcast
46 °F
Feels Like 46 °F
N
1
Wind Variable Wind from South
Gusts 5.0 mph

Today
High -- | Low -- °F
--% Chance of Precip.
Yesterday
High -- | Low -- °F
Precip. -- in
7:54 AM 6:00 PM
Waxing Gibbous, 63% visible
Pressure 29.77 in
Visibility 10.0 miles
Clouds Overcast 22000 ft
Windchill 46 °F
Dew Point 31 °F
Humidity 55%
Rainfall 0.00 in
Snow Depth Not available.
UV 0 out of 12
Pollen 1.90 out of 12
Air Quality Not available.
Flu Activity Not available.
METAR KBIL 010453Z 19003KT 10SM OVC220 12/00 A2977 RMK AO2 SLP079 T01220000

More Conditions Fewer Conditions

Pressure 29.77 in
Visibility 10.0 miles
Clouds Overcast 22000 ft
Windchill 46 °F
Dew Point 31 °F
Humidity 55%
Rainfall 0.00 in
Snow Depth Not available.
UV 0 out of 12
Pollen 1.90 out of 12
Air Quality Not available.
Flu Activity Not available.
METAR KBIL 010453Z 19003KT 10SM OVC220 12/00 A2977 RMK AO2 SLP079 T01220000

More Conditions Fewer Conditions

10-Day Weather Forecast

Almanac

Astronomy

Oct. 31, 2014 Rise Set
Actual Time
Civil Twilight
Nautical Twilight
Astronomical Twilight
Moon
Length of Visible Light
Length of Day
Tomorrow will be .
, % of the Moon is Illuminated

Today's Extremes

State Highs State Lows

Community

WunderPhotos

Upload Photos

1,766,859 photos uploaded!

WunderBlogs® & News

Nearby

Air Quality

  Air Quality AQ Index Pollutant
Not available.

Snow Depth

Station Depth Elevation

Earthquake Activity

City Distance Mag. Time & Date
Minimum magnitude displayed is 2.5.

Coastal Water Temperatures

Place Temperature

Nearby Weather Stations